TPC5711 SEGU-SKBO
Flight info
| Callsign | TPC5711 |
|---|---|
| Flight time | 1h 28m |
| Altitude | 39000 |
| Route | USOGI1 PAMIS DCT QIT DCT ARNOK DCT BOKAN DCT PPN DCT KONKO DCT MONVI DCT ABL DCT USTOP DCT AMVES DCT LOBEV DCT BO613 DCT BO697 DCT |
| Aircraft | B737/M-SDE2E3FGHIRWXY/LB1 |
Departure
| Time | 2026-04-25 00:59 |
|---|---|
| Airport | José Joaquín de Olmedo International Airport (SEGU) |
Arrival
| Time | 2026-04-25 02:28 |
|---|---|
| Airport | El Dorado International Airport (SKBO) |
| Time | Latitude | Longitude | Altitude | Speed | Heading |
|---|---|---|---|---|---|
| 2026-04-25 00:21 | -2.14767 | -79.88265 | 20 ft | 0 kts | 300° |
| 2026-04-25 00:51 | -2.14778 | -79.88248 | 20 ft | 4 kts | 306° |
| 2026-04-25 00:52 | -2.14795 | -79.88228 | 22 ft | 4 kts | 324° |
| 2026-04-25 00:52 | -2.14817 | -79.88218 | 20 ft | 4 kts | 15° |
| 2026-04-25 00:52 | -2.14824 | -79.88220 | 22 ft | 2 kts | 30° |
| 2026-04-25 00:53 | -2.14823 | -79.88220 | 20 ft | 0 kts | 30° |
| 2026-04-25 00:56 | -2.14791 | -79.88193 | 20 ft | 7 kts | 64° |
| 2026-04-25 00:56 | -2.14805 | -79.88130 | 22 ft | 10 kts | 117° |
| 2026-04-25 00:56 | -2.14830 | -79.88071 | 21 ft | 7 kts | 88° |
| 2026-04-25 00:56 | -2.14799 | -79.88017 | 21 ft | 11 kts | 39° |
| 2026-04-25 00:57 | -2.14731 | -79.87978 | 21 ft | 11 kts | 27° |
| 2026-04-25 00:57 | -2.14673 | -79.87939 | 20 ft | 9 kts | 51° |
| 2026-04-25 00:57 | -2.14650 | -79.87894 | 21 ft | 4 kts | 70° |
| 2026-04-25 00:57 | -2.14650 | -79.87893 | 21 ft | 0 kts | 70° |
| 2026-04-25 00:58 | -2.14650 | -79.87892 | 21 ft | 2 kts | 70° |
| 2026-04-25 00:58 | -2.14629 | -79.87834 | 22 ft | 10 kts | 76° |
| 2026-04-25 00:58 | -2.14633 | -79.87784 | 23 ft | 8 kts | 109° |
| 2026-04-25 00:58 | -2.14684 | -79.87755 | 20 ft | 9 kts | 200° |
| 2026-04-25 00:59 | -2.14882 | -79.87862 | 22 ft | 68 kts | 209° |
| 2026-04-25 00:59 | -2.15495 | -79.88218 | 20 ft | 132 kts | 210° |
| 2026-04-25 00:59 | -2.16425 | -79.88751 | 251 ft | 170 kts | 209° |
| 2026-04-25 00:59 | -2.17555 | -79.89378 | 684 ft | 199 kts | 208° |
| 2026-04-25 01:00 | -2.18805 | -79.90054 | 1240 ft | 210 kts | 210° |
| 2026-04-25 01:00 | -2.20093 | -79.90801 | 1589 ft | 214 kts | 210° |
| 2026-04-25 01:00 | -2.21591 | -79.91204 | 1531 ft | 239 kts | 176° |
| 2026-04-25 01:00 | -2.23224 | -79.90652 | 1510 ft | 255 kts | 151° |
| 2026-04-25 01:01 | -2.24507 | -79.89446 | 1494 ft | 255 kts | 126° |
| 2026-04-25 01:01 | -2.25128 | -79.87817 | 1517 ft | 256 kts | 99° |
| 2026-04-25 01:01 | -2.24951 | -79.86025 | 1486 ft | 260 kts | 69° |
| 2026-04-25 01:01 | -2.23969 | -79.84558 | 1489 ft | 261 kts | 42° |
| 2026-04-25 01:02 | -2.22513 | -79.83489 | 1520 ft | 261 kts | 32° |
| 2026-04-25 01:02 | -2.20943 | -79.82511 | 1634 ft | 273 kts | 31° |
| 2026-04-25 01:02 | -2.19292 | -79.81503 | 2349 ft | 278 kts | 32° |
| 2026-04-25 01:02 | -2.17685 | -79.80519 | 3646 ft | 261 kts | 32° |
| 2026-04-25 01:03 | -2.16148 | -79.79569 | 4772 ft | 256 kts | 33° |
| 2026-04-25 01:03 | -2.14614 | -79.78615 | 5541 ft | 267 kts | 31° |
| 2026-04-25 01:03 | -2.13011 | -79.77614 | 6294 ft | 275 kts | 31° |
| 2026-04-25 01:03 | -2.11376 | -79.76590 | 7131 ft | 279 kts | 32° |
| 2026-04-25 01:04 | -2.09718 | -79.75548 | 8039 ft | 283 kts | 32° |
| 2026-04-25 01:04 | -2.08040 | -79.74494 | 8941 ft | 288 kts | 32° |
| 2026-04-25 01:04 | -2.06332 | -79.73420 | 9863 ft | 292 kts | 32° |
| 2026-04-25 01:04 | -2.04588 | -79.72324 | 10559 ft | 305 kts | 32° |
| 2026-04-25 01:05 | -2.02681 | -79.71183 | 10773 ft | 334 kts | 30° |
| 2026-04-25 01:05 | -2.00587 | -79.69994 | 11027 ft | 357 kts | 29° |
| 2026-04-25 01:05 | -1.98383 | -79.68760 | 11625 ft | 367 kts | 29° |
| 2026-04-25 01:05 | -1.96142 | -79.67504 | 12397 ft | 372 kts | 29° |
| 2026-04-25 01:06 | -1.93877 | -79.66218 | 13208 ft | 377 kts | 30° |
| 2026-04-25 01:06 | -1.91631 | -79.64840 | 13959 ft | 381 kts | 31° |
| 2026-04-25 01:06 | -1.89386 | -79.63404 | 14675 ft | 385 kts | 32° |
| 2026-04-25 01:06 | -1.87129 | -79.61944 | 15403 ft | 388 kts | 32° |
| 2026-04-25 01:07 | -1.84853 | -79.60471 | 16090 ft | 392 kts | 32° |
| 2026-04-25 01:07 | -1.82551 | -79.58987 | 16765 ft | 396 kts | 32° |
| 2026-04-25 01:07 | -1.80222 | -79.57491 | 17455 ft | 399 kts | 32° |
| 2026-04-25 01:07 | -1.77872 | -79.55987 | 18152 ft | 403 kts | 32° |
| 2026-04-25 01:08 | -1.75498 | -79.54471 | 18718 ft | 406 kts | 32° |
| 2026-04-25 01:08 | -1.73108 | -79.52948 | 19305 ft | 408 kts | 32° |
| 2026-04-25 01:08 | -1.70704 | -79.51417 | 19887 ft | 411 kts | 32° |
| 2026-04-25 01:08 | -1.68289 | -79.49880 | 20451 ft | 413 kts | 32° |
| 2026-04-25 01:09 | -1.65858 | -79.48332 | 20995 ft | 416 kts | 32° |
| 2026-04-25 01:09 | -1.63412 | -79.46776 | 21553 ft | 418 kts | 32° |
| 2026-04-25 01:09 | -1.60950 | -79.45209 | 22082 ft | 421 kts | 32° |
| 2026-04-25 01:09 | -1.58475 | -79.43634 | 22591 ft | 423 kts | 33° |
| 2026-04-25 01:10 | -1.55981 | -79.42047 | 23152 ft | 426 kts | 33° |
| 2026-04-25 01:10 | -1.53473 | -79.40450 | 23616 ft | 429 kts | 33° |
| 2026-04-25 01:10 | -1.50950 | -79.38844 | 24014 ft | 432 kts | 33° |
| 2026-04-25 01:10 | -1.48412 | -79.37229 | 24428 ft | 434 kts | 33° |
| 2026-04-25 01:11 | -1.45859 | -79.35604 | 24823 ft | 435 kts | 33° |
| 2026-04-25 01:11 | -1.43298 | -79.33975 | 25209 ft | 438 kts | 33° |
| 2026-04-25 01:11 | -1.40721 | -79.32334 | 25577 ft | 440 kts | 34° |
| 2026-04-25 01:11 | -1.38135 | -79.30689 | 25948 ft | 442 kts | 34° |
| 2026-04-25 01:12 | -1.35540 | -79.29037 | 26319 ft | 444 kts | 34° |
| 2026-04-25 01:12 | -1.32929 | -79.27376 | 26759 ft | 446 kts | 34° |
| 2026-04-25 01:12 | -1.30308 | -79.25709 | 27095 ft | 448 kts | 34° |
| 2026-04-25 01:12 | -1.27674 | -79.24033 | 27405 ft | 450 kts | 34° |
| 2026-04-25 01:13 | -1.25027 | -79.22348 | 27721 ft | 452 kts | 34° |
| 2026-04-25 01:13 | -1.22369 | -79.20657 | 28061 ft | 453 kts | 35° |
| 2026-04-25 01:13 | -1.19704 | -79.18962 | 28365 ft | 455 kts | 35° |
| 2026-04-25 01:13 | -1.17025 | -79.17258 | 28677 ft | 457 kts | 35° |
| 2026-04-25 01:14 | -1.14346 | -79.15553 | 28949 ft | 459 kts | 36° |
| 2026-04-25 01:14 | -1.11646 | -79.13835 | 29210 ft | 461 kts | 35° |
| 2026-04-25 01:14 | -1.08936 | -79.12111 | 29578 ft | 463 kts | 35° |
| 2026-04-25 01:14 | -1.06213 | -79.10379 | 29868 ft | 464 kts | 35° |
| 2026-04-25 01:15 | -1.03486 | -79.08645 | 30118 ft | 466 kts | 35° |
| 2026-04-25 01:15 | -1.00745 | -79.06901 | 30358 ft | 468 kts | 36° |
| 2026-04-25 01:15 | -0.97993 | -79.05150 | 30592 ft | 469 kts | 36° |
| 2026-04-25 01:15 | -0.95284 | -79.03428 | 30877 ft | 468 kts | 36° |
| 2026-04-25 01:16 | -0.92538 | -79.01682 | 31159 ft | 468 kts | 35° |
| 2026-04-25 01:16 | -0.89787 | -78.99933 | 31456 ft | 468 kts | 36° |
| 2026-04-25 01:16 | -0.87040 | -78.98186 | 31889 ft | 467 kts | 35° |
| 2026-04-25 01:16 | -0.84313 | -78.96452 | 32314 ft | 464 kts | 35° |
| 2026-04-25 01:17 | -0.81587 | -78.94719 | 32675 ft | 464 kts | 35° |
| 2026-04-25 01:17 | -0.79753 | -78.93552 | 32898 ft | 464 kts | 35° |
| 2026-04-25 01:17 | -0.76147 | -78.91259 | 33386 ft | 463 kts | 35° |
| 2026-04-25 01:17 | -0.73436 | -78.89534 | 33778 ft | 462 kts | 35° |
| 2026-04-25 01:18 | -0.70724 | -78.87810 | 34172 ft | 461 kts | 35° |
| 2026-04-25 01:18 | -0.68021 | -78.86091 | 34542 ft | 460 kts | 35° |
| 2026-04-25 01:18 | -0.65326 | -78.84377 | 34897 ft | 459 kts | 35° |
| 2026-04-25 01:18 | -0.62632 | -78.82663 | 35278 ft | 458 kts | 35° |
| 2026-04-25 01:19 | -0.59943 | -78.80954 | 35570 ft | 458 kts | 35° |
| 2026-04-25 01:19 | -0.57259 | -78.79247 | 35885 ft | 457 kts | 34° |
| 2026-04-25 01:19 | -0.54581 | -78.77543 | 36239 ft | 456 kts | 35° |
| 2026-04-25 01:19 | -0.51906 | -78.75842 | 36596 ft | 454 kts | 34° |
| 2026-04-25 01:20 | -0.49243 | -78.74149 | 36895 ft | 454 kts | 34° |
| 2026-04-25 01:20 | -0.46582 | -78.72457 | 37160 ft | 454 kts | 34° |
| 2026-04-25 01:20 | -0.43917 | -78.70762 | 37402 ft | 454 kts | 34° |
| 2026-04-25 01:20 | -0.41256 | -78.69069 | 37679 ft | 453 kts | 34° |
| 2026-04-25 01:21 | -0.38603 | -78.67382 | 38030 ft | 452 kts | 34° |
| 2026-04-25 01:21 | -0.35982 | -78.65716 | 38288 ft | 452 kts | 34° |
| 2026-04-25 01:21 | -0.33329 | -78.64029 | 38324 ft | 452 kts | 34° |
| 2026-04-25 01:22 | -0.28023 | -78.60655 | 38331 ft | 452 kts | 34° |
| 2026-04-25 01:22 | -0.22721 | -78.57283 | 38351 ft | 452 kts | 34° |
| 2026-04-25 01:23 | -0.17412 | -78.53907 | 38365 ft | 452 kts | 34° |
| 2026-04-25 01:23 | -0.12101 | -78.50530 | 38380 ft | 453 kts | 34° |
| 2026-04-25 01:24 | -0.06785 | -78.47150 | 38369 ft | 453 kts | 34° |
| 2026-04-25 01:24 | -0.01469 | -78.43770 | 38370 ft | 453 kts | 34° |
| 2026-04-25 01:24 | 0.01192 | -78.42078 | 38262 ft | 453 kts | 35° |
| 2026-04-25 01:25 | 0.03846 | -78.40390 | 38261 ft | 453 kts | 35° |
| 2026-04-25 01:25 | 0.09156 | -78.37014 | 38306 ft | 452 kts | 35° |
| 2026-04-25 01:26 | 0.14461 | -78.33641 | 38309 ft | 452 kts | 35° |
| 2026-04-25 01:26 | 0.19749 | -78.30277 | 38283 ft | 449 kts | 35° |
| 2026-04-25 01:27 | 0.25025 | -78.26923 | 38308 ft | 450 kts | 35° |
| 2026-04-25 01:27 | 0.30308 | -78.23563 | 38294 ft | 450 kts | 35° |
| 2026-04-25 01:28 | 0.37344 | -78.19088 | 38300 ft | 451 kts | 35° |
| 2026-04-25 01:28 | 0.42639 | -78.15720 | 38289 ft | 452 kts | 34° |
| 2026-04-25 01:29 | 0.47950 | -78.12342 | 38258 ft | 453 kts | 34° |
| 2026-04-25 01:29 | 0.53152 | -78.08806 | 38252 ft | 452 kts | 38° |
| 2026-04-25 01:30 | 0.58178 | -78.05026 | 38259 ft | 452 kts | 39° |
| 2026-04-25 01:30 | 0.63205 | -78.01241 | 38252 ft | 453 kts | 38° |
| 2026-04-25 01:31 | 0.68257 | -77.97481 | 38239 ft | 453 kts | 38° |
| 2026-04-25 01:31 | 0.73318 | -77.93728 | 38250 ft | 453 kts | 39° |
| 2026-04-25 01:32 | 0.78375 | -77.89976 | 38232 ft | 453 kts | 38° |
| 2026-04-25 01:32 | 0.83306 | -77.86083 | 38235 ft | 451 kts | 43° |
| 2026-04-25 01:33 | 0.87992 | -77.81908 | 38236 ft | 451 kts | 44° |
| 2026-04-25 01:33 | 0.90314 | -77.79809 | 38384 ft | 451 kts | 44° |
| 2026-04-25 01:33 | 0.92641 | -77.77710 | 38411 ft | 451 kts | 44° |
| 2026-04-25 01:34 | 0.97312 | -77.73525 | 38392 ft | 451 kts | 44° |
| 2026-04-25 01:34 | 1.01985 | -77.69364 | 38369 ft | 450 kts | 43° |
| 2026-04-25 01:35 | 1.06664 | -77.65204 | 38335 ft | 450 kts | 43° |
| 2026-04-25 01:35 | 1.11343 | -77.61046 | 38271 ft | 450 kts | 43° |
| 2026-04-25 01:36 | 1.16025 | -77.56885 | 38226 ft | 451 kts | 44° |
| 2026-04-25 01:36 | 1.20717 | -77.52713 | 38169 ft | 452 kts | 44° |
| 2026-04-25 01:37 | 1.25414 | -77.48536 | 38176 ft | 452 kts | 44° |
| 2026-04-25 01:37 | 1.30118 | -77.44354 | 38193 ft | 453 kts | 44° |
| 2026-04-25 01:38 | 1.34824 | -77.40170 | 38193 ft | 453 kts | 44° |
| 2026-04-25 01:38 | 1.39496 | -77.36015 | 38212 ft | 453 kts | 44° |
| 2026-04-25 01:39 | 1.44204 | -77.31827 | 38126 ft | 454 kts | 44° |
| 2026-04-25 01:39 | 1.48920 | -77.27633 | 38120 ft | 454 kts | 44° |
| 2026-04-25 01:40 | 1.53677 | -77.23403 | 38069 ft | 455 kts | 43° |
| 2026-04-25 01:40 | 1.58375 | -77.19222 | 38088 ft | 455 kts | 44° |
| 2026-04-25 01:41 | 1.63109 | -77.15012 | 38103 ft | 456 kts | 44° |
| 2026-04-25 01:41 | 1.67844 | -77.10801 | 38062 ft | 456 kts | 44° |
| 2026-04-25 01:42 | 1.72572 | -77.06595 | 38082 ft | 455 kts | 44° |
| 2026-04-25 01:42 | 1.77304 | -77.02384 | 38072 ft | 455 kts | 44° |
| 2026-04-25 01:43 | 1.82026 | -76.98183 | 38053 ft | 454 kts | 44° |
| 2026-04-25 01:43 | 1.86744 | -76.93984 | 38046 ft | 454 kts | 43° |
| 2026-04-25 01:44 | 1.91458 | -76.89789 | 38096 ft | 453 kts | 44° |
| 2026-04-25 01:44 | 1.96167 | -76.85599 | 38067 ft | 454 kts | 44° |
| 2026-04-25 01:45 | 2.00887 | -76.81397 | 38069 ft | 454 kts | 44° |
| 2026-04-25 01:45 | 2.05605 | -76.77191 | 38111 ft | 454 kts | 44° |
| 2026-04-25 01:46 | 2.10330 | -76.72986 | 38084 ft | 455 kts | 44° |
| 2026-04-25 01:46 | 2.15056 | -76.68782 | 38105 ft | 455 kts | 44° |
| 2026-04-25 01:47 | 2.19783 | -76.64574 | 38136 ft | 455 kts | 44° |
| 2026-04-25 01:47 | 2.24516 | -76.60361 | 38147 ft | 456 kts | 44° |
| 2026-04-25 01:48 | 2.29247 | -76.56147 | 38176 ft | 456 kts | 44° |
| 2026-04-25 01:48 | 2.33982 | -76.51930 | 38187 ft | 456 kts | 44° |
| 2026-04-25 01:49 | 2.38726 | -76.47703 | 38163 ft | 458 kts | 44° |
| 2026-04-25 01:49 | 2.43482 | -76.43468 | 38171 ft | 458 kts | 44° |
| 2026-04-25 01:50 | 2.48235 | -76.39234 | 38167 ft | 458 kts | 44° |
| 2026-04-25 01:50 | 2.52998 | -76.34991 | 38143 ft | 458 kts | 44° |
| 2026-04-25 01:51 | 2.57761 | -76.30747 | 38142 ft | 459 kts | 44° |
| 2026-04-25 01:51 | 2.62527 | -76.26500 | 38133 ft | 459 kts | 44° |
| 2026-04-25 01:52 | 2.67263 | -76.22279 | 38136 ft | 459 kts | 44° |
| 2026-04-25 01:52 | 2.72037 | -76.18023 | 38146 ft | 460 kts | 44° |
| 2026-04-25 01:53 | 2.76823 | -76.13757 | 38134 ft | 461 kts | 44° |
| 2026-04-25 01:53 | 2.81608 | -76.09491 | 38140 ft | 461 kts | 44° |
| 2026-04-25 01:54 | 2.86391 | -76.05228 | 38149 ft | 460 kts | 44° |
| 2026-04-25 01:54 | 2.91171 | -76.00964 | 38154 ft | 460 kts | 44° |
| 2026-04-25 01:55 | 2.95954 | -75.96698 | 38144 ft | 461 kts | 44° |
| 2026-04-25 01:55 | 3.00742 | -75.92428 | 38143 ft | 461 kts | 44° |
| 2026-04-25 01:56 | 3.05529 | -75.88158 | 38135 ft | 461 kts | 44° |
| 2026-04-25 01:56 | 3.10329 | -75.83874 | 38142 ft | 462 kts | 44° |
| 2026-04-25 01:57 | 3.17522 | -75.77457 | 38100 ft | 461 kts | 44° |
| 2026-04-25 01:58 | 3.22308 | -75.73187 | 38114 ft | 460 kts | 44° |
| 2026-04-25 01:58 | 3.27090 | -75.68918 | 38112 ft | 461 kts | 44° |
| 2026-04-25 01:59 | 3.31876 | -75.64645 | 38103 ft | 461 kts | 44° |
| 2026-04-25 01:59 | 3.36665 | -75.60369 | 38054 ft | 461 kts | 44° |
| 2026-04-25 02:00 | 3.41460 | -75.56087 | 38065 ft | 462 kts | 44° |
| 2026-04-25 02:00 | 3.46256 | -75.51805 | 38057 ft | 462 kts | 44° |
| 2026-04-25 02:01 | 3.51052 | -75.47522 | 38035 ft | 462 kts | 44° |
| 2026-04-25 02:01 | 3.55850 | -75.43235 | 38032 ft | 462 kts | 44° |
| 2026-04-25 02:02 | 3.60653 | -75.38944 | 38035 ft | 462 kts | 44° |
| 2026-04-25 02:02 | 3.65446 | -75.34661 | 38025 ft | 462 kts | 44° |
| 2026-04-25 02:03 | 3.70238 | -75.30378 | 38039 ft | 462 kts | 44° |
| 2026-04-25 02:03 | 3.75033 | -75.26092 | 38052 ft | 462 kts | 44° |
| 2026-04-25 02:04 | 3.79829 | -75.21804 | 38044 ft | 462 kts | 44° |
| 2026-04-25 02:04 | 3.84632 | -75.17510 | 37985 ft | 464 kts | 44° |
| 2026-04-25 02:04 | 3.87066 | -75.15332 | 37335 ft | 470 kts | 44° |
| 2026-04-25 02:05 | 3.89494 | -75.13161 | 36691 ft | 467 kts | 44° |
| 2026-04-25 02:05 | 3.91920 | -75.10992 | 35973 ft | 467 kts | 44° |
| 2026-04-25 02:05 | 3.94342 | -75.08825 | 35172 ft | 468 kts | 44° |
| 2026-04-25 02:05 | 3.96778 | -75.06646 | 34340 ft | 471 kts | 44° |
| 2026-04-25 02:06 | 3.99229 | -75.04452 | 33371 ft | 474 kts | 44° |
| 2026-04-25 02:06 | 4.01660 | -75.02277 | 32442 ft | 476 kts | 44° |
| 2026-04-25 02:06 | 4.04132 | -75.00064 | 31465 ft | 478 kts | 44° |
| 2026-04-25 02:06 | 4.06612 | -74.97845 | 30429 ft | 480 kts | 44° |
| 2026-04-25 02:07 | 4.09113 | -74.95606 | 29291 ft | 483 kts | 44° |
| 2026-04-25 02:07 | 4.11598 | -74.93383 | 28501 ft | 475 kts | 43° |
| 2026-04-25 02:07 | 4.14047 | -74.91192 | 27697 ft | 469 kts | 43° |
| 2026-04-25 02:07 | 4.16465 | -74.89028 | 26925 ft | 463 kts | 43° |
| 2026-04-25 02:08 | 4.19071 | -74.87165 | 26453 ft | 461 kts | 27° |
| 2026-04-25 02:08 | 4.22049 | -74.86084 | 26319 ft | 450 kts | 12° |
| 2026-04-25 02:08 | 4.25088 | -74.85637 | 26213 ft | 433 kts | 7° |
| 2026-04-25 02:08 | 4.28017 | -74.85304 | 26114 ft | 416 kts | 7° |
| 2026-04-25 02:09 | 4.30832 | -74.84989 | 26087 ft | 398 kts | 7° |
| 2026-04-25 02:09 | 4.33524 | -74.84670 | 26077 ft | 381 kts | 8° |
| 2026-04-25 02:09 | 4.36098 | -74.84347 | 26062 ft | 365 kts | 8° |
| 2026-04-25 02:09 | 4.38559 | -74.84027 | 26080 ft | 349 kts | 8° |
| 2026-04-25 02:10 | 4.40922 | -74.83716 | 26073 ft | 335 kts | 8° |
| 2026-04-25 02:10 | 4.43184 | -74.83419 | 26095 ft | 321 kts | 8° |
| 2026-04-25 02:10 | 4.45346 | -74.83135 | 26098 ft | 306 kts | 8° |
| 2026-04-25 02:10 | 4.47463 | -74.82855 | 25587 ft | 312 kts | 8° |
| 2026-04-25 02:11 | 4.49698 | -74.82559 | 24518 ft | 338 kts | 7° |
| 2026-04-25 02:11 | 4.52116 | -74.82240 | 23365 ft | 362 kts | 7° |
| 2026-04-25 02:11 | 4.54679 | -74.81902 | 22186 ft | 376 kts | 7° |
| 2026-04-25 02:11 | 4.57283 | -74.81559 | 21264 ft | 378 kts | 7° |
| 2026-04-25 02:12 | 4.59871 | -74.81217 | 20494 ft | 373 kts | 7° |
| 2026-04-25 02:12 | 4.62427 | -74.80879 | 19783 ft | 367 kts | 6° |
| 2026-04-25 02:12 | 4.64946 | -74.80546 | 19095 ft | 364 kts | 6° |
| 2026-04-25 02:12 | 4.66602 | -74.80327 | 18828 ft | 360 kts | 6° |
| 2026-04-25 02:13 | 4.69079 | -74.80000 | 18398 ft | 359 kts | 6° |
| 2026-04-25 02:13 | 4.71546 | -74.79675 | 18001 ft | 357 kts | 6° |
| 2026-04-25 02:13 | 4.74022 | -74.79348 | 17361 ft | 358 kts | 6° |
| 2026-04-25 02:13 | 4.76434 | -74.79039 | 17143 ft | 341 kts | 4° |
| 2026-04-25 02:14 | 4.78746 | -74.79133 | 16997 ft | 328 kts | 351° |
| 2026-04-25 02:14 | 4.80995 | -74.79469 | 16899 ft | 326 kts | 349° |
| 2026-04-25 02:14 | 4.83226 | -74.79821 | 16855 ft | 324 kts | 349° |
| 2026-04-25 02:14 | 4.85454 | -74.80163 | 16900 ft | 324 kts | 350° |
| 2026-04-25 02:15 | 4.87686 | -74.80491 | 16900 ft | 325 kts | 351° |
| 2026-04-25 02:15 | 4.89920 | -74.80809 | 16884 ft | 323 kts | 350° |
| 2026-04-25 02:15 | 4.92149 | -74.81124 | 16890 ft | 323 kts | 351° |
| 2026-04-25 02:15 | 4.94382 | -74.81384 | 16788 ft | 324 kts | 359° |
| 2026-04-25 02:16 | 4.96852 | -74.80926 | 16792 ft | 326 kts | 15° |
| 2026-04-25 02:16 | 4.98769 | -74.80320 | 16756 ft | 327 kts | 17° |
| 2026-04-25 02:16 | 5.00931 | -74.79606 | 16732 ft | 327 kts | 15° |
| 2026-04-25 02:16 | 5.03096 | -74.78897 | 16723 ft | 328 kts | 16° |
| 2026-04-25 02:17 | 5.05274 | -74.78198 | 16699 ft | 329 kts | 16° |
| 2026-04-25 02:17 | 5.07393 | -74.77352 | 16582 ft | 329 kts | 32° |
| 2026-04-25 02:17 | 5.08943 | -74.75747 | 16251 ft | 324 kts | 60° |
| 2026-04-25 02:17 | 5.09675 | -74.73655 | 16148 ft | 307 kts | 81° |
| 2026-04-25 02:18 | 5.09714 | -74.71600 | 16039 ft | 292 kts | 96° |
| 2026-04-25 02:18 | 5.09229 | -74.69646 | 15759 ft | 283 kts | 115° |
| 2026-04-25 02:18 | 5.08311 | -74.67942 | 15229 ft | 286 kts | 122° |
| 2026-04-25 02:18 | 5.07196 | -74.66188 | 14338 ft | 310 kts | 124° |
| 2026-04-25 02:19 | 5.05980 | -74.64347 | 13702 ft | 320 kts | 124° |
| 2026-04-25 02:19 | 5.04751 | -74.62485 | 13264 ft | 320 kts | 124° |
| 2026-04-25 02:19 | 5.03534 | -74.60626 | 12909 ft | 316 kts | 123° |
| 2026-04-25 02:19 | 5.02332 | -74.58775 | 12887 ft | 318 kts | 123° |
| 2026-04-25 02:20 | 5.01122 | -74.56901 | 12871 ft | 320 kts | 123° |
| 2026-04-25 02:20 | 4.99921 | -74.55035 | 12784 ft | 319 kts | 123° |
| 2026-04-25 02:20 | 4.98727 | -74.53177 | 12772 ft | 314 kts | 123° |
| 2026-04-25 02:20 | 4.97552 | -74.51347 | 12763 ft | 311 kts | 123° |
| 2026-04-25 02:21 | 4.96379 | -74.49518 | 12785 ft | 313 kts | 123° |
| 2026-04-25 02:21 | 4.95190 | -74.47667 | 12804 ft | 317 kts | 123° |
| 2026-04-25 02:21 | 4.93996 | -74.45799 | 12810 ft | 318 kts | 122° |
| 2026-04-25 02:21 | 4.92805 | -74.43957 | 12797 ft | 311 kts | 124° |
| 2026-04-25 02:22 | 4.91606 | -74.42219 | 12785 ft | 295 kts | 126° |
| 2026-04-25 02:22 | 4.90435 | -74.40602 | 12794 ft | 279 kts | 127° |
| 2026-04-25 02:22 | 4.89293 | -74.39076 | 12827 ft | 270 kts | 128° |
| 2026-04-25 02:22 | 4.88160 | -74.37577 | 12839 ft | 271 kts | 128° |
| 2026-04-25 02:23 | 4.87045 | -74.36097 | 12806 ft | 260 kts | 127° |
| 2026-04-25 02:23 | 4.85988 | -74.34690 | 12809 ft | 246 kts | 127° |
| 2026-04-25 02:23 | 4.84989 | -74.33363 | 12624 ft | 231 kts | 127° |
| 2026-04-25 02:23 | 4.84041 | -74.32102 | 12331 ft | 223 kts | 127° |
| 2026-04-25 02:24 | 4.83112 | -74.30867 | 12064 ft | 222 kts | 126° |
| 2026-04-25 02:24 | 4.82178 | -74.29624 | 11792 ft | 224 kts | 126° |
| 2026-04-25 02:24 | 4.81245 | -74.28383 | 11512 ft | 222 kts | 126° |
| 2026-04-25 02:24 | 4.80319 | -74.27152 | 11232 ft | 220 kts | 126° |
| 2026-04-25 02:25 | 4.79397 | -74.25925 | 10974 ft | 221 kts | 126° |
| 2026-04-25 02:25 | 4.78475 | -74.24698 | 10698 ft | 218 kts | 126° |
| 2026-04-25 02:25 | 4.77584 | -74.23514 | 10443 ft | 207 kts | 126° |
| 2026-04-25 02:25 | 4.76758 | -74.22416 | 10207 ft | 194 kts | 125° |
| 2026-04-25 02:26 | 4.75981 | -74.21381 | 9998 ft | 176 kts | 127° |
| 2026-04-25 02:26 | 4.75269 | -74.20435 | 9736 ft | 161 kts | 127° |
| 2026-04-25 02:26 | 4.74607 | -74.19554 | 9496 ft | 156 kts | 127° |
| 2026-04-25 02:26 | 4.73958 | -74.18690 | 9290 ft | 157 kts | 127° |
| 2026-04-25 02:27 | 4.73291 | -74.17803 | 9069 ft | 161 kts | 127° |
| 2026-04-25 02:27 | 4.72622 | -74.16913 | 8824 ft | 159 kts | 127° |
| 2026-04-25 02:27 | 4.71953 | -74.16024 | 8622 ft | 160 kts | 126° |
| 2026-04-25 02:27 | 4.71289 | -74.15138 | 8414 ft | 157 kts | 127° |
| 2026-04-25 02:28 | 4.70658 | -74.14309 | 8360 ft | 135 kts | 126° |
| 2026-04-25 02:28 | 4.70240 | -74.13755 | 8358 ft | 50 kts | 135° |
| 2026-04-25 02:28 | 4.70082 | -74.13649 | 8360 ft | 15 kts | 153° |
| 2026-04-25 02:28 | 4.69990 | -74.13609 | 8360 ft | 14 kts | 159° |
| 2026-04-25 02:29 | 4.69961 | -74.13598 | 8360 ft | 0 kts | 158° |
| 2026-04-25 02:30 | 4.69936 | -74.13588 | 8360 ft | 10 kts | 158° |
| 2026-04-25 02:30 | 4.69860 | -74.13572 | 8361 ft | 11 kts | 194° |
| 2026-04-25 02:31 | 4.69792 | -74.13612 | 8361 ft | 11 kts | 221° |
| 2026-04-25 02:31 | 4.69727 | -74.13630 | 8361 ft | 10 kts | 155° |
| 2026-04-25 02:31 | 4.69685 | -74.13583 | 8361 ft | 8 kts | 124° |
| 2026-04-25 02:31 | 4.69661 | -74.13562 | 8361 ft | 1 kts | 184° |
| 2026-04-25 02:32 | 4.69634 | -74.13577 | 8361 ft | 6 kts | 208° |
| 2026-04-25 02:32 | 4.69616 | -74.13587 | 8361 ft | 0 kts | 208° |